Data for 01/02/2014

Time Sea-Level Adjusted Pressure Absolute Pressure Temperature Relative Humidity Dew Point   
(mb) (inHg) (mb) (inHg) (C) (F) (%) (C) (F)
00:05 1024 30.24 854 25.22 -5.5 22.1 62 -11.7 10.9
00:10 1024 30.24 854 25.22 -4.9 23.2 59 -11.6 11.1
00:15 1024 30.24 854 25.22 -4.4 24 57 -11.7 10.9
00:20 1024 30.24 854 25.22 -3.9 25 56 -11.5 11.2
00:25 1024 30.24 853 25.19 -3.6 25.5 56 -11.1 12.1
00:30 1024 30.24 854 25.22 -3.8 25.1 58 -11 12.3
00:35 1024 30.24 854 25.22 -4.1 24.6 59 -11 12.2
00:40 1024 30.24 853 25.19 -4.1 24.7 59 -11 12.3
00:45 1024 30.24 853 25.19 -4.1 24.6 60 -10.8 12.5
00:50 1024 30.24 854 25.22 -4.4 24.1 60 -11 12.2
00:55 1024 30.24 854 25.22 -4.4 24.1 63 -10.5 13.1
01:00 1024 30.24 854 25.22 -4.8 23.4 64 -10.5 13.1
01:05 1024 30.24 854 25.22 -5 23 65 -10.6 12.9
01:10 1024 30.24 854 25.22 -5.3 22.5 66 -10.8 12.6
01:15 1024 30.24 853 25.19 -5.3 22.5 64 -11.1 12
01:20 1024 30.24 854 25.22 -4.9 23.2 63 -10.8 12.5
01:25 1024 30.24 853 25.19 -4.8 23.4 63 -10.7 12.7
01:30 1024 30.24 853 25.19 -4.9 23.3 64 -10.6 12.9
01:35 1024 30.24 853 25.19 -4.9 23.2 64 -10.7 12.8
01:40 1024 30.24 853 25.19 -4.9 23.2 64 -10.6 12.9
01:45 1024 30.24 853 25.19 -5.1 22.9 66 -10.6 13
01:50 1024 30.24 853 25.19 -5.3 22.5 65 -10.9 12.5
01:55 1024 30.24 853 25.19 -5.6 21.9 66 -11 12.1
02:00 1024 30.24 853 25.19 -5.5 22.1 65 -11.1 12.1
02:05 1024 30.24 853 25.19 -5 23 60 -11.6 11.2
02:10 1024 30.24 853 25.19 -4.8 23.3 60 -11.5 11.4
02:15 1024 30.24 853 25.19 -5.2 22.6 62 -11.4 11.6
02:20 1024 30.24 853 25.19 -5.8 21.5 64 -11.6 11.2
02:25 1024 30.24 853 25.19 -6.3 20.6 66 -11.6 11.1
02:30 1024 30.24 853 25.19 -6.3 20.7 67 -11.3 11.6
02:35 1024 30.24 853 25.19 -5.7 21.7 67 -10.9 12.3
02:40 1024 30.24 853 25.19 -5.7 21.8 66 -11 12.2
02:45 1024 30.24 853 25.19 -5.5 22 67 -10.8 12.6
02:50 1024 30.24 853 25.19 -5 22.9 62 -11.2 11.8
02:55 1024 30.24 853 25.19 -4.9 23.1 62 -11.2 11.9
03:00 1024 30.24 853 25.19 -5.3 22.4 64 -11.1 12
03:05 1024 30.24 853 25.19 -5.8 21.6 66 -11.1 12
03:10 1024 30.24 853 25.19 -5.6 22 66 -11 12.1
03:15 1024 30.24 853 25.19 -5.6 21.9 66 -11 12.2
03:20 1024 30.24 853 25.19 -5.7 21.8 66 -11 12.2
03:25 1024 30.24 853 25.19 -5.3 22.4 62 -11.5 11.3
03:30 1024 30.24 853 25.19 -4.3 24.3 59 -11.2 11.8
03:35 1024 30.24 853 25.19 -4.1 24.7 60 -10.8 12.6
03:40 1024 30.24 853 25.19 -4.3 24.3 61 -10.7 12.8
03:45 1024 30.24 853 25.19 -4.5 23.9 63 -10.6 12.9
03:50 1024 30.24 853 25.19 -4.9 23.2 63 -10.9 12.4
03:55 1024 30.24 853 25.19 -6 21.3 67 -11.1 12
04:00 1024 30.24 853 25.19 -5.8 21.5 65 -11.4 11.5
04:05 1024 30.24 853 25.19 -5.2 22.7 63 -11.1 12
04:10 1024 30.24 853 25.19 -4.8 23.4 62 -11 12.3
04:15 1024 30.24 853 25.19 -4.6 23.7 62 -10.9 12.4
04:20 1024 30.24 853 25.19 -4.4 24.2 61 -10.8 12.5
04:25 1024 30.24 853 25.19 -4.5 23.9 62 -10.7 12.8
04:30 1024 30.24 853 25.19 -4.6 23.7 62 -10.8 12.6
04:35 1024 30.24 853 25.19 -4.9 23.1 64 -10.8 12.5
04:40 1024 30.24 853 25.19 -5.1 22.7 65 -10.8 12.5
04:45 1024 30.24 853 25.19 -4.8 23.3 61 -11.2 11.9
04:50 1024 30.24 853 25.19 -4.4 24.2 62 -10.7 12.8
04:55 1024 30.24 853 25.19 -4.7 23.6 63 -10.6 12.9
05:00 1024 30.24 853 25.19 -4.8 23.4 62 -11.1 12
05:05 1023 30.21 853 25.19 -4.3 24.3 59 -11 12.1
05:10 1023 30.21 853 25.19 -4.1 24.6 59 -10.9 12.4
05:15 1023 30.21 853 25.19 -4.4 24.1 60 -11 12.2
05:20 1023 30.21 853 25.19 -4.4 24.1 60 -11.1 12.1
05:25 1023 30.21 853 25.19 -4.8 23.4 62 -10.9 12.4
05:30 1023 30.21 853 25.19 -5.2 22.6 64 -11 12.1
05:35 1023 30.21 853 25.19 -5.1 22.9 63 -11.1 12.1
05:40 1023 30.21 852 25.16 -5.1 22.8 64 -11 12.2
05:45 1023 30.21 852 25.16 -5.2 22.7 63 -11.2 11.9
05:50 1023 30.21 852 25.16 -5 23.1 62 -11.1 12
05:55 1023 30.21 852 25.16 -4.9 23.1 62 -11.1 12
06:00 1023 30.21 852 25.16 -5.1 22.9 62 -11.2 11.9
06:05 1023 30.21 852 25.16 -5.3 22.5 64 -11.2 11.9
06:10 1023 30.21 852 25.16 -5.3 22.4 64 -11.2 11.9
06:15 1023 30.21 852 25.16 -5.2 22.7 63 -11.2 11.9
06:20 1023 30.21 852 25.16 -5.3 22.5 64 -11.1 12
06:25 1023 30.21 852 25.16 -5.2 22.6 63 -11.1 11.9
06:30 1023 30.21 852 25.16 -5.1 22.8 63 -11 12.1
06:35 1023 30.21 852 25.16 -5.1 22.9 63 -11.1 12
06:40 1023 30.21 852 25.16 -5.1 22.8 64 -10.9 12.3
06:45 1023 30.21 852 25.16 -5.2 22.7 63 -11.1 12
06:50 1023 30.21 852 25.16 -5.1 22.9 63 -11.1 12
06:55 1023 30.21 852 25.16 -5 22.9 64 -10.9 12.4
07:00 1023 30.21 852 25.16 -5.4 22.3 67 -10.6 12.9
07:05 1023 30.21 852 25.16 -5.5 22.2 67 -10.6 12.9
07:10 1023 30.21 852 25.16 -5.7 21.8 68 -10.6 12.9
07:15 1023 30.21 852 25.16 -6.1 21.1 71 -10.6 13
07:20 1023 30.21 852 25.16 -6.2 20.8 71 -10.7 12.8
07:25 1023 30.21 852 25.16 -6.2 20.9 68 -11 12.1
07:30 1023 30.21 852 25.16 -5.9 21.5 69 -10.7 12.7
07:35 1023 30.21 852 25.16 -5.6 21.9 66 -11 12.3
07:40 1023 30.21 852 25.16 -5.3 22.5 66 -10.7 12.8
07:45 1023 30.21 852 25.16 -5.3 22.4 66 -10.7 12.8
07:50 1023 30.21 852 25.16 -5.1 22.8 65 -10.7 12.7
07:55 1023 30.21 852 25.16 -5 22.9 65 -10.5 13
08:00 1023 30.21 852 25.16 -4.9 23.2 63 -10.9 12.5
08:05 1023 30.21 852 25.16 -4.8 23.4 64 -10.5 13
08:10 1023 30.21 852 25.16 -5 23 65 -10.5 13.1
08:15 1023 30.21 852 25.16 -4.9 23.2 65 -10.4 13.2
08:20 1023 30.21 852 25.16 -4.8 23.4 66 -10.3 13.5
08:25 1023 30.21 852 25.16 -4.7 23.5 66 -10.1 13.9
08:30 1023 30.21 852 25.16 -4.7 23.5 66 -10.2 13.7
08:35 1023 30.21 852 25.16 -4.9 23.2 66 -10.3 13.4
08:40 1023 30.21 852 25.16 -4.8 23.3 65 -10.4 13.3
08:45 1023 30.21 852 25.16 -4.7 23.5 64 -10.4 13.2
08:50 1023 30.21 852 25.16 -4.7 23.5 66 -10.1 13.8
08:55 1023 30.21 852 25.16 -4.6 23.7 65 -10.3 13.5
09:00 1023 30.21 852 25.16 -4.5 23.8 65 -10.2 13.6
09:05 1023 30.21 852 25.16 -4.4 24.1 65 -10.1 13.9
09:10 1022 30.18 852 25.16 -4.3 24.3 64 -10 14
09:15 1022 30.18 852 25.16 -4.1 24.6 62 -10.3 13.4
09:20 1022 30.18 852 25.16 -3.9 25 62 -10.1 13.8
09:25 1022 30.18 852 25.16 -3.9 25 62 -10.2 13.7
09:30 1022 30.18 852 25.16 -3.9 24.9 61 -10.3 13.4
09:35 1023 30.21 852 25.16 -3.8 25.2 61 -10.3 13.5
09:40 1023 30.21 852 25.16 -3.6 25.6 59 -10.4 13.3
09:45 1023 30.21 852 25.16 -3.2 26.3 58 -10.4 13.3
09:50 1022 30.18 852 25.16 -3 26.7 58 -10.2 13.7
09:55 1022 30.18 851 25.13 -3.1 26.3 60 -9.9 14.2
10:00 1022 30.18 851 25.13 -3.4 25.9 61 -9.9 14.2
10:05 1022 30.18 851 25.13 -3.4 25.9 62 -9.8 14.4
10:10 1022 30.18 851 25.13 -3.4 25.8 62 -9.6 14.7
10:15 1022 30.18 851 25.13 -3.3 26.1 62 -9.6 14.7
10:20 1022 30.18 852 25.16 -3.1 26.4 62 -9.3 15.2
10:25 1022 30.18 852 25.16 -3 26.7 63 -9 15.9
10:30 1022 30.18 851 25.13 -3.2 26.3 65 -8.8 16.1
10:35 1022 30.18 851 25.13 -3 26.6 63 -9.1 15.6
10:40 1022 30.18 851 25.13 -2.8 27 64 -8.6 16.5
10:45 1022 30.18 851 25.13 -2.7 27.1 63 -8.8 16.2
10:50 1022 30.18 852 25.16 -2.6 27.2 58 -9.9 14.2
10:55 1022 30.18 852 25.16 -2.3 27.9 56 -9.9 14.2
11:00 1022 30.18 852 25.16 -2.3 27.9 59 -9.2 15.4
11:05 1022 30.18 852 25.16 -2.6 27.4 61 -9 15.8
11:10 1022 30.18 852 25.16 -2.7 27.2 60 -9.3 15.2
11:15 1022 30.18 852 25.16 -2.5 27.4 61 -9 15.8
11:20 1022 30.18 851 25.13 -2.4 27.6 62 -8.8 16.2
11:25 1022 30.18 851 25.13 -2.5 27.4 62 -8.8 16.2
11:30 1022 30.18 851 25.13 -2.5 27.4 65 -8.3 17.1
11:35 1022 30.18 851 25.13 -2.3 27.8 61 -8.8 16.1
11:40 1022 30.18 851 25.13 -2 28.4 60 -8.8 16.1
11:45 1022 30.18 851 25.13 -1.7 28.9 60 -8.6 16.6
11:50 1022 30.18 851 25.13 -1.6 29.2 60 -8.4 16.8
11:55 1022 30.18 851 25.13 -1.4 29.5 57 -8.8 16.2
12:00 1022 30.18 851 25.13 -1.1 29.9 57 -8.7 16.4
12:05 1022 30.18 851 25.13 -1 30.1 56 -8.8 16.2
12:10 1022 30.18 851 25.13 -0.9 30.5 56 -8.5 16.7
12:15 1022 30.18 851 25.13 -0.7 30.7 55 -8.6 16.4
12:20 1022 30.18 851 25.13 -0.7 30.8 58 -7.9 17.7
12:25 1022 30.18 851 25.13 -0.5 31.1 58 -7.8 18
12:30 1021 30.15 851 25.13 -0.5 31.1 59 -7.7 18.2
12:35 1021 30.15 851 25.13 -0.7 30.8 58 -8 17.6
12:40 1021 30.15 851 25.13 -0.9 30.3 58 -8.2 17.3
12:45 1021 30.15 851 25.13 -0.8 30.6 56 -8.4 16.8
12:50 1022 30.18 851 25.13 -0.4 31.3 53 -8.8 16.2
12:55 1021 30.15 851 25.13 -0.3 31.5 52 -9.1 15.7
13:00 1021 30.15 851 25.13 -0.4 31.3 51 -9.3 15.3
13:05 1021 30.15 851 25.13 -0.2 31.6 50 -9.4 15
13:10 1021 30.15 850 25.1 0 32 49 -9.5 14.9
13:15 1021 30.15 850 25.1 0.3 32.5 51 -8.8 16.2
13:20 1021 30.15 850 25.1 0.7 33.3 48 -9.1 15.7
13:25 1021 30.15 850 25.1 0.8 33.5 49 -8.8 16.2
13:30 1021 30.15 850 25.1 0.8 33.4 50 -8.6 16.5
13:35 1021 30.15 850 25.1 0.8 33.4 51 -8.4 16.9
13:40 1021 30.15 850 25.1 0.5 32.9 54 -7.8 18
13:45 1021 30.15 850 25.1 0.4 32.7 54 -8 17.7
13:50 1021 30.15 850 25.1 0.8 33.4 52 -7.9 17.8
13:55 1021 30.15 850 25.1 0.9 33.7 51 -8.1 17.5
14:00 1021 30.15 850 25.1 1.1 33.9 51 -8 17.6
14:05 1021 30.15 850 25.1 1.2 34.1 50 -8.1 17.5
14:10 1021 30.15 850 25.1 1.1 34 50 -8.1 17.4
14:15 1020 30.12 850 25.1 1 33.9 52 -7.8 17.9
14:20 1020 30.12 850 25.1 1 33.8 51 -8 17.7
14:25 1020 30.12 850 25.1 0.8 33.4 52 -8 17.5
14:30 1020 30.12 849 25.07 1 33.8 51 -8 17.7
14:35 1020 30.12 849 25.07 1 33.7 51 -7.9 17.7
14:40 1020 30.12 849 25.07 1 33.7 54 -7.4 18.7
14:45 1020 30.12 849 25.07 1 33.8 53 -7.6 18.4
14:50 1020 30.12 849 25.07 1 33.8 53 -7.6 18.3
14:55 1019 30.09 849 25.07 1.2 34.2 53 -7.3 18.8
15:00 1019 30.09 848 25.04 1.4 34.6 52 -7.3 18.8
15:05 1019 30.09 848 25.04 1.6 34.9 51 -7.5 18.5
15:10 1019 30.09 848 25.04 1.7 35 49 -7.8 18
15:15 1019 30.09 848 25.04 1.7 35.1 50 -7.5 18.4
15:20 1019 30.09 848 25.04 2.2 35.9 49 -7.4 18.7
15:25 1019 30.09 848 25.04 2.3 36.1 48 -7.7 18.2
15:30 1019 30.09 848 25.04 2.7 36.9 46 -7.8 18
15:35 1019 30.09 848 25.04 3.3 38 44 -7.8 18
15:40 1019 30.09 848 25.04 3.6 38.4 44 -7.6 18.4
15:45 1019 30.09 848 25.04 3.8 38.8 44 -7.2 19
15:50 1019 30.09 848 25.04 3.4 38 45 -7.4 18.7
15:55 1018 30.06 848 25.04 3.2 37.8 46 -7.2 19
16:00 1018 30.06 848 25.04 4.2 39.5 41 -7.8 18
16:05 1018 30.06 848 25.04 4.3 39.7 44 -7 19.4
16:10 1018 30.06 848 25.04 3.9 39.1 45 -6.9 19.5
16:15 1018 30.06 848 25.04 4.1 39.5 44 -7 19.4
16:20 1018 30.06 848 25.04 4.7 40.4 43 -6.9 19.7
16:25 1018 30.06 848 25.04 5.1 41.2 42 -6.6 20.1
16:30 1018 30.06 847 25.01 5.2 41.4 42 -6.5 20.3
16:35 1018 30.06 847 25.01 5 41 44 -6.4 20.5
16:40 1018 30.06 847 25.01 4.4 39.9 46 -6.3 20.6
16:45 1018 30.06 848 25.04 4.1 39.4 46 -6.5 20.3
16:50 1018 30.06 848 25.04 3.6 38.5 47 -6.6 20.1
16:55 1018 30.06 848 25.04 3.4 38.2 48 -6.4 20.4
17:00 1018 30.06 848 25.04 3.5 38.2 49 -6.3 20.7
17:05 1018 30.06 847 25.01 3.4 38.1 48 -6.6 20.2
17:10 1018 30.06 847 25.01 3.5 38.3 49 -6.3 20.7
17:15 1018 30.06 847 25.01 3.4 38.2 49 -6.3 20.7
17:20 1018 30.06 847 25.01 3.3 37.9 50 -6.3 20.7
17:25 1018 30.06 847 25.01 3.1 37.6 51 -6.2 20.9
17:30 1018 30.06 847 25.01 2.8 37 52 -6 21.2
17:35 1018 30.06 847 25.01 2.6 36.7 53 -6.1 21
17:40 1018 30.06 847 25.01 2.6 36.7 52 -6.2 20.8
17:45 1018 30.06 847 25.01 2.5 36.4 54 -5.8 21.5
17:50 1018 30.06 847 25.01 2.2 35.9 56 -5.6 21.8
17:55 1018 30.06 847 25.01 2.1 35.8 56 -5.7 21.7
18:00 1018 30.06 847 25.01 2 35.6 58 -5.5 22.1
18:05 1017 30.03 847 25.01 1.5 34.8 60 -5.4 22.3
18:10 1017 30.03 847 25.01 1 33.8 62 -5.4 22.2
18:15 1017 30.03 847 25.01 0.6 33.1 62 -5.8 21.6
18:20 1017 30.03 846 24.98 0.8 33.5 61 -5.9 21.3
18:25 1017 30.03 846 24.98 1.1 34 61 -5.6 21.8
18:30 1017 30.03 846 24.98 0.8 33.4 61 -5.8 21.5
18:35 1017 30.03 846 24.98 0.7 33.2 59 -6.4 20.6
18:40 1017 30.03 846 24.98 0.6 33 60 -6.3 20.7
18:45 1017 30.03 846 24.98 0.8 33.5 58 -6.6 20.1
18:50 1017 30.03 846 24.98 1.4 34.5 55 -6.7 19.9
18:55 1017 30.03 846 24.98 2.1 35.7 54 -6.4 20.5
19:00 1017 30.03 846 24.98 2.3 36.2 53 -6.2 20.8
19:05 1017 30.03 846 24.98 2.4 36.2 53 -6.3 20.7
19:10 1017 30.03 846 24.98 2.5 36.5 53 -6.1 21.1
19:15 1017 30.03 846 24.98 2.4 36.4 54 -6 21.3
19:20 1017 30.03 846 24.98 1.9 35.5 57 -5.8 21.6
19:25 1017 30.03 846 24.98 1.7 35 56 -6.1 21
19:30 1017 30.03 846 24.98 1.7 35.1 56 -6.1 21
19:35 1017 30.03 846 24.98 1.9 35.5 57 -5.8 21.6
19:40 1017 30.03 846 24.98 0.3 32.6 63 -5.8 21.5
19:45 1017 30.03 846 24.98 -0.1 31.8 64 -6.1 21
19:50 1017 30.03 846 24.98 0.4 32.7 62 -6.1 21
19:55 1017 30.03 846 24.98 1 33.7 59 -6.3 20.7
20:00 1017 30.03 846 24.98 1.2 34.1 58 -6.2 20.8
20:05 1016 30 846 24.98 2.2 35.9 55 -5.9 21.4
20:10 1016 30 846 24.98 2.7 36.8 55 -5.5 22.1
20:15 1016 30 845 24.95 2.7 36.8 55 -5.4 22.3
20:20 1016 30 845 24.95 2.6 36.6 56 -5.5 22.2
20:25 1016 30 845 24.95 0.8 33.4 62 -5.7 21.7
20:30 1016 30 845 24.95 0.5 32.9 61 -6.1 21
20:35 1016 30 845 24.95 0.7 33.2 62 -5.9 21.5
20:40 1016 30 845 24.95 0.6 33.1 63 -5.6 21.9
20:45 1016 30 845 24.95 0.3 32.5 63 -5.8 21.5
20:50 1016 30 845 24.95 0.3 32.6 65 -5.6 22
20:55 1015 29.97 845 24.95 2.5 36.5 54 -6 21.2
21:00 1015 29.97 845 24.95 3.3 37.9 54 -5 22.9
21:05 1015 29.97 845 24.95 2.5 36.5 56 -5.3 22.5
21:10 1015 29.97 845 24.95 2.4 36.2 55 -5.8 21.6
21:15 1015 29.97 845 24.95 2.7 36.9 56 -5.1 22.8
21:20 1015 29.97 845 24.95 1.7 35.1 60 -5.2 22.6
21:25 1015 29.97 845 24.95 1.4 34.5 60 -5.5 22
21:30 1015 29.97 845 24.95 1.9 35.4 57 -5.8 21.5
21:35 1015 29.97 845 24.95 2.6 36.7 55 -5.5 22
21:40 1015 29.97 844 24.92 2.5 36.4 57 -5.1 22.8
21:45 1015 29.97 845 24.95 1.9 35.4 59 -5.2 22.7
21:50 1015 29.97 844 24.92 1.5 34.7 60 -5.5 22.1
21:55 1015 29.97 844 24.92 1.8 35.3 59 -5.4 22.3
22:00 1015 29.97 844 24.92 2.1 35.8 57 -5.6 22
22:05 1015 29.97 844 24.92 2.8 37.1 55 -5.4 22.2
22:10 1015 29.97 844 24.92 3 37.5 53 -5.7 21.8
22:15 1015 29.97 844 24.92 3.6 38.5 54 -4.9 23.1
22:20 1015 29.97 844 24.92 3.8 38.8 52 -5.1 22.9
22:25 1014 29.94 844 24.92 3.8 38.8 53 -5 22.9
22:30 1014 29.94 844 24.92 3.9 39 53 -4.9 23.2
22:35 1014 29.94 844 24.92 3.9 39 53 -4.9 23.1
22:40 1014 29.94 844 24.92 3.6 38.5 56 -4.5 24
22:45 1014 29.94 844 24.92 2.4 36.2 60 -4.7 23.6
22:50 1014 29.94 843 24.89 1.8 35.2 60 -5.2 22.7
22:55 1014 29.94 843 24.89 1.8 35.2 60 -5.2 22.7
23:00 1014 29.94 843 24.89 1.9 35.5 60 -5 23
23:05 1014 29.94 843 24.89 1.8 35.2 60 -5.1 22.9
23:10 1014 29.94 843 24.89 1.8 35.2 61 -5 23
23:15 1014 29.94 843 24.89 1.8 35.2 61 -5.1 22.9
23:20 1014 29.94 843 24.89 2 35.6 60 -5 23
23:25 1014 29.94 843 24.89 2.1 35.8 59 -5 23.1
23:30 1014 29.94 843 24.89 2.3 36.2 58 -5 23
23:35 1014 29.94 843 24.89 2.4 36.3 59 -4.8 23.4
23:40 1014 29.94 843 24.89 2.4 36.4 58 -4.9 23.2
23:45 1014 29.94 843 24.89 2.5 36.6 59 -4.8 23.4
23:50 1014 29.94 843 24.89 2.5 36.5 59 -4.8 23.4
23:55 1014 29.94 843 24.89 2.4 36.3 59 -4.8 23.4
24:00 1014 29.94 843 24.89 2.4 36.4 59 -4.9 23.2